sensor_id;sensor_type;location;lat;lon;timestamp;P1;durP1;ratioP1;P2;durP2;ratioP2
11064;SDS011;5585;52.530;7.320;2023-07-13T00:01:03;4.03;;;1.40;;
11064;SDS011;5585;52.530;7.320;2023-07-13T00:03:31;2.92;;;0.93;;
11064;SDS011;5585;52.530;7.320;2023-07-13T00:06:00;3.88;;;1.30;;
11064;SDS011;5585;52.530;7.320;2023-07-13T00:08:30;3.10;;;1.42;;
11064;SDS011;5585;52.530;7.320;2023-07-13T00:10:59;2.72;;;1.15;;
11064;SDS011;5585;52.530;7.320;2023-07-13T00:13:27;4.78;;;1.30;;
11064;SDS011;5585;52.530;7.320;2023-07-13T00:15:54;2.67;;;1.10;;
11064;SDS011;5585;52.530;7.320;2023-07-13T00:18:21;3.75;;;0.98;;
11064;SDS011;5585;52.530;7.320;2023-07-13T00:20:48;3.33;;;1.20;;
11064;SDS011;5585;52.530;7.320;2023-07-13T00:23:15;3.28;;;1.30;;
11064;SDS011;5585;52.530;7.320;2023-07-13T00:25:42;3.85;;;1.20;;
11064;SDS011;5585;52.530;7.320;2023-07-13T00:28:10;1.73;;;0.70;;
11064;SDS011;5585;52.530;7.320;2023-07-13T00:30:36;3.38;;;1.02;;
11064;SDS011;5585;52.530;7.320;2023-07-13T00:33:03;4.28;;;1.50;;
11064;SDS011;5585;52.530;7.320;2023-07-13T00:35:30;3.83;;;1.05;;
11064;SDS011;5585;52.530;7.320;2023-07-13T00:37:57;3.45;;;1.10;;
11064;SDS011;5585;52.530;7.320;2023-07-13T00:40:23;4.88;;;1.25;;
11064;SDS011;5585;52.530;7.320;2023-07-13T00:42:51;3.03;;;1.38;;
11064;SDS011;5585;52.530;7.320;2023-07-13T00:48:07;3.65;;;1.00;;
11064;SDS011;5585;52.530;7.320;2023-07-13T00:50:34;2.70;;;1.10;;
11064;SDS011;5585;52.530;7.320;2023-07-13T00:53:00;2.85;;;1.15;;
11064;SDS011;5585;52.530;7.320;2023-07-13T00:55:27;2.20;;;0.90;;
11064;SDS011;5585;52.530;7.320;2023-07-13T00:57:54;1.98;;;0.95;;
11064;SDS011;5585;52.530;7.320;2023-07-13T01:00:23;4.00;;;1.05;;
11064;SDS011;5585;52.530;7.320;2023-07-13T01:02:52;3.35;;;1.30;;
11064;SDS011;5585;52.530;7.320;2023-07-13T01:05:21;4.95;;;1.10;;
11064;SDS011;5585;52.530;7.320;2023-07-13T01:07:48;4.00;;;1.10;;
11064;SDS011;5585;52.530;7.320;2023-07-13T01:10:21;2.85;;;0.98;;
11064;SDS011;5585;52.530;7.320;2023-07-13T01:12:48;4.10;;;1.17;;
11064;SDS011;5585;52.530;7.320;2023-07-13T01:15:33;3.63;;;1.08;;
11064;SDS011;5585;52.530;7.320;2023-07-13T01:18:00;5.30;;;1.15;;
11064;SDS011;5585;52.530;7.320;2023-07-13T01:20:28;3.63;;;1.10;;
11064;SDS011;5585;52.530;7.320;2023-07-13T01:22:56;3.42;;;1.20;;
11064;SDS011;5585;52.530;7.320;2023-07-13T01:25:24;2.85;;;1.00;;
11064;SDS011;5585;52.530;7.320;2023-07-13T01:27:51;5.18;;;1.30;;
11064;SDS011;5585;52.530;7.320;2023-07-13T01:30:18;5.72;;;1.45;;
11064;SDS011;5585;52.530;7.320;2023-07-13T01:32:45;3.53;;;1.20;;
11064;SDS011;5585;52.530;7.320;2023-07-13T01:35:12;2.92;;;1.10;;
11064;SDS011;5585;52.530;7.320;2023-07-13T01:37:38;3.22;;;1.40;;
11064;SDS011;5585;52.530;7.320;2023-07-13T01:40:07;4.53;;;1.17;;
11064;SDS011;5585;52.530;7.320;2023-07-13T01:42:34;5.45;;;1.58;;
11064;SDS011;5585;52.530;7.320;2023-07-13T01:45:00;3.15;;;1.00;;
11064;SDS011;5585;52.530;7.320;2023-07-13T01:47:27;1.88;;;1.00;;
11064;SDS011;5585;52.530;7.320;2023-07-13T01:49:55;2.60;;;1.38;;
11064;SDS011;5585;52.530;7.320;2023-07-13T01:52:22;5.15;;;1.33;;
11064;SDS011;5585;52.530;7.320;2023-07-13T01:54:49;2.72;;;1.23;;
11064;SDS011;5585;52.530;7.320;2023-07-13T01:57:17;2.60;;;0.98;;
11064;SDS011;5585;52.530;7.320;2023-07-13T01:59:44;2.22;;;1.02;;
11064;SDS011;5585;52.530;7.320;2023-07-13T02:02:11;2.65;;;1.10;;
11064;SDS011;5585;52.530;7.320;2023-07-13T02:04:38;2.35;;;1.10;;
11064;SDS011;5585;52.530;7.320;2023-07-13T02:07:04;2.88;;;1.02;;
11064;SDS011;5585;52.530;7.320;2023-07-13T02:09:31;3.85;;;1.23;;
11064;SDS011;5585;52.530;7.320;2023-07-13T02:11:57;2.17;;;1.20;;
11064;SDS011;5585;52.530;7.320;2023-07-13T02:14:25;4.57;;;1.20;;
11064;SDS011;5585;52.530;7.320;2023-07-13T02:16:52;3.33;;;1.25;;
11064;SDS011;5585;52.530;7.320;2023-07-13T02:19:18;5.28;;;1.15;;
11064;SDS011;5585;52.530;7.320;2023-07-13T02:21:45;4.05;;;1.70;;
11064;SDS011;5585;52.530;7.320;2023-07-13T02:24:11;3.60;;;1.52;;
11064;SDS011;5585;52.530;7.320;2023-07-13T02:26:42;4.35;;;1.63;;
11064;SDS011;5585;52.530;7.320;2023-07-13T02:29:09;4.97;;;1.67;;
11064;SDS011;5585;52.530;7.320;2023-07-13T02:31:37;3.33;;;1.33;;
11064;SDS011;5585;52.530;7.320;2023-07-13T02:34:03;4.50;;;1.60;;
11064;SDS011;5585;52.530;7.320;2023-07-13T02:36:30;4.22;;;1.52;;
11064;SDS011;5585;52.530;7.320;2023-07-13T02:38:57;4.65;;;1.60;;
11064;SDS011;5585;52.530;7.320;2023-07-13T02:41:24;4.32;;;1.35;;
11064;SDS011;5585;52.530;7.320;2023-07-13T02:43:50;4.07;;;1.63;;
11064;SDS011;5585;52.530;7.320;2023-07-13T02:46:18;5.80;;;1.60;;
11064;SDS011;5585;52.530;7.320;2023-07-13T02:48:48;4.65;;;1.50;;
11064;SDS011;5585;52.530;7.320;2023-07-13T02:51:15;3.33;;;1.40;;
11064;SDS011;5585;52.530;7.320;2023-07-13T02:53:41;4.43;;;1.45;;
11064;SDS011;5585;52.530;7.320;2023-07-13T02:56:08;5.50;;;1.70;;
11064;SDS011;5585;52.530;7.320;2023-07-13T02:58:34;5.47;;;1.60;;
11064;SDS011;5585;52.530;7.320;2023-07-13T03:01:06;4.53;;;1.60;;
11064;SDS011;5585;52.530;7.320;2023-07-13T03:03:33;4.68;;;1.75;;
11064;SDS011;5585;52.530;7.320;2023-07-13T03:06:01;6.15;;;1.65;;
11064;SDS011;5585;52.530;7.320;2023-07-13T03:08:28;5.88;;;1.50;;
11064;SDS011;5585;52.530;7.320;2023-07-13T03:10:59;3.88;;;1.70;;
11064;SDS011;5585;52.530;7.320;2023-07-13T03:13:25;6.57;;;1.67;;
11064;SDS011;5585;52.530;7.320;2023-07-13T03:15:52;3.63;;;1.60;;
11064;SDS011;5585;52.530;7.320;2023-07-13T03:18:21;4.57;;;1.75;;
11064;SDS011;5585;52.530;7.320;2023-07-13T03:20:50;5.07;;;1.70;;
11064;SDS011;5585;52.530;7.320;2023-07-13T03:23:19;4.18;;;1.30;;
11064;SDS011;5585;52.530;7.320;2023-07-13T03:25:46;3.90;;;1.60;;
11064;SDS011;5585;52.530;7.320;2023-07-13T03:28:13;5.82;;;1.85;;
11064;SDS011;5585;52.530;7.320;2023-07-13T03:30:40;3.30;;;1.42;;
11064;SDS011;5585;52.530;7.320;2023-07-13T03:33:06;3.38;;;1.65;;
11064;SDS011;5585;52.530;7.320;2023-07-13T03:35:33;4.78;;;1.67;;
11064;SDS011;5585;52.530;7.320;2023-07-13T03:38:00;4.40;;;1.75;;
11064;SDS011;5585;52.530;7.320;2023-07-13T03:40:28;4.90;;;2.00;;
11064;SDS011;5585;52.530;7.320;2023-07-13T03:42:54;3.25;;;1.55;;
11064;SDS011;5585;52.530;7.320;2023-07-13T03:45:21;3.47;;;1.83;;
11064;SDS011;5585;52.530;7.320;2023-07-13T03:47:48;3.80;;;1.80;;
11064;SDS011;5585;52.530;7.320;2023-07-13T03:50:15;4.65;;;1.98;;
11064;SDS011;5585;52.530;7.320;2023-07-13T03:52:41;5.20;;;1.65;;
11064;SDS011;5585;52.530;7.320;2023-07-13T03:55:08;5.15;;;2.08;;
11064;SDS011;5585;52.530;7.320;2023-07-13T03:57:37;5.90;;;1.80;;
11064;SDS011;5585;52.530;7.320;2023-07-13T04:00:03;3.63;;;1.60;;
11064;SDS011;5585;52.530;7.320;2023-07-13T04:02:31;2.20;;;1.35;;
11064;SDS011;5585;52.530;7.320;2023-07-13T04:04:57;2.75;;;1.33;;
11064;SDS011;5585;52.530;7.320;2023-07-13T04:07:24;5.90;;;2.00;;
11064;SDS011;5585;52.530;7.320;2023-07-13T04:09:51;3.65;;;1.58;;
11064;SDS011;5585;52.530;7.320;2023-07-13T04:12:18;3.50;;;1.50;;
11064;SDS011;5585;52.530;7.320;2023-07-13T04:14:46;4.53;;;1.70;;
11064;SDS011;5585;52.530;7.320;2023-07-13T04:17:14;3.85;;;1.80;;
11064;SDS011;5585;52.530;7.320;2023-07-13T04:19:41;6.03;;;2.35;;
11064;SDS011;5585;52.530;7.320;2023-07-13T04:22:08;3.10;;;1.35;;
11064;SDS011;5585;52.530;7.320;2023-07-13T04:24:44;5.05;;;1.77;;
11064;SDS011;5585;52.530;7.320;2023-07-13T04:27:11;3.83;;;1.77;;
11064;SDS011;5585;52.530;7.320;2023-07-13T04:29:37;3.45;;;1.52;;
11064;SDS011;5585;52.530;7.320;2023-07-13T04:32:06;5.88;;;1.55;;
11064;SDS011;5585;52.530;7.320;2023-07-13T04:34:33;4.55;;;1.50;;
11064;SDS011;5585;52.530;7.320;2023-07-13T04:36:59;5.28;;;1.50;;
11064;SDS011;5585;52.530;7.320;2023-07-13T04:39:26;4.63;;;1.90;;
11064;SDS011;5585;52.530;7.320;2023-07-13T04:41:53;4.10;;;1.73;;
11064;SDS011;5585;52.530;7.320;2023-07-13T04:44:21;3.47;;;1.50;;
11064;SDS011;5585;52.530;7.320;2023-07-13T04:46:47;2.55;;;1.40;;
11064;SDS011;5585;52.530;7.320;2023-07-13T04:49:15;3.90;;;1.80;;
11064;SDS011;5585;52.530;7.320;2023-07-13T04:51:42;3.15;;;1.50;;
11064;SDS011;5585;52.530;7.320;2023-07-13T04:54:08;3.40;;;1.50;;
11064;SDS011;5585;52.530;7.320;2023-07-13T04:56:35;3.80;;;1.60;;
11064;SDS011;5585;52.530;7.320;2023-07-13T04:59:02;4.40;;;1.70;;
11064;SDS011;5585;52.530;7.320;2023-07-13T05:01:28;5.22;;;1.70;;
11064;SDS011;5585;52.530;7.320;2023-07-13T05:03:56;2.78;;;1.58;;
11064;SDS011;5585;52.530;7.320;2023-07-13T05:06:25;4.75;;;1.63;;
11064;SDS011;5585;52.530;7.320;2023-07-13T05:08:52;6.10;;;1.60;;
11064;SDS011;5585;52.530;7.320;2023-07-13T05:11:18;4.43;;;1.63;;
11064;SDS011;5585;52.530;7.320;2023-07-13T05:13:45;4.70;;;1.60;;
11064;SDS011;5585;52.530;7.320;2023-07-13T05:16:11;3.25;;;1.67;;
11064;SDS011;5585;52.530;7.320;2023-07-13T05:18:38;6.18;;;2.22;;
11064;SDS011;5585;52.530;7.320;2023-07-13T05:21:05;3.80;;;1.88;;
11064;SDS011;5585;52.530;7.320;2023-07-13T05:23:34;2.65;;;1.73;;
11064;SDS011;5585;52.530;7.320;2023-07-13T05:26:01;5.63;;;2.25;;
11064;SDS011;5585;52.530;7.320;2023-07-13T05:28:28;3.13;;;1.63;;
11064;SDS011;5585;52.530;7.320;2023-07-13T05:30:55;7.05;;;1.90;;
11064;SDS011;5585;52.530;7.320;2023-07-13T05:33:28;5.00;;;2.03;;
11064;SDS011;5585;52.530;7.320;2023-07-13T05:35:55;4.00;;;1.67;;
11064;SDS011;5585;52.530;7.320;2023-07-13T05:38:22;4.80;;;2.30;;
11064;SDS011;5585;52.530;7.320;2023-07-13T05:40:50;6.13;;;2.30;;
11064;SDS011;5585;52.530;7.320;2023-07-13T05:43:32;5.90;;;2.13;;
11064;SDS011;5585;52.530;7.320;2023-07-13T05:45:59;6.35;;;2.40;;
11064;SDS011;5585;52.530;7.320;2023-07-13T05:48:26;5.13;;;2.22;;
11064;SDS011;5585;52.530;7.320;2023-07-13T05:50:52;5.25;;;2.28;;
11064;SDS011;5585;52.530;7.320;2023-07-13T05:53:19;5.53;;;2.50;;
11064;SDS011;5585;52.530;7.320;2023-07-13T05:55:46;7.20;;;2.80;;
11064;SDS011;5585;52.530;7.320;2023-07-13T05:58:16;5.60;;;2.05;;
11064;SDS011;5585;52.530;7.320;2023-07-13T06:00:43;4.55;;;1.80;;
11064;SDS011;5585;52.530;7.320;2023-07-13T06:03:10;5.32;;;2.38;;
11064;SDS011;5585;52.530;7.320;2023-07-13T06:05:36;6.38;;;2.10;;
11064;SDS011;5585;52.530;7.320;2023-07-13T06:08:04;6.18;;;2.55;;
11064;SDS011;5585;52.530;7.320;2023-07-13T06:10:32;7.13;;;2.10;;
11064;SDS011;5585;52.530;7.320;2023-07-13T06:12:58;3.90;;;2.05;;
11064;SDS011;5585;52.530;7.320;2023-07-13T06:15:27;4.05;;;1.65;;
11064;SDS011;5585;52.530;7.320;2023-07-13T06:17:54;4.70;;;2.13;;
11064;SDS011;5585;52.530;7.320;2023-07-13T06:20:20;6.97;;;2.40;;
11064;SDS011;5585;52.530;7.320;2023-07-13T06:22:47;6.00;;;2.10;;
11064;SDS011;5585;52.530;7.320;2023-07-13T06:25:13;5.55;;;2.03;;
11064;SDS011;5585;52.530;7.320;2023-07-13T06:27:40;5.20;;;2.15;;
11064;SDS011;5585;52.530;7.320;2023-07-13T06:30:07;5.15;;;2.28;;
11064;SDS011;5585;52.530;7.320;2023-07-13T06:32:35;4.07;;;1.90;;
11064;SDS011;5585;52.530;7.320;2023-07-13T06:35:02;6.35;;;2.38;;
11064;SDS011;5585;52.530;7.320;2023-07-13T06:37:29;4.13;;;2.00;;
11064;SDS011;5585;52.530;7.320;2023-07-13T06:39:55;6.65;;;2.50;;
11064;SDS011;5585;52.530;7.320;2023-07-13T06:42:22;6.60;;;2.05;;
11064;SDS011;5585;52.530;7.320;2023-07-13T06:44:48;5.72;;;2.65;;
11064;SDS011;5585;52.530;7.320;2023-07-13T06:47:16;5.20;;;2.00;;
11064;SDS011;5585;52.530;7.320;2023-07-13T06:49:43;4.60;;;2.30;;
11064;SDS011;5585;52.530;7.320;2023-07-13T06:52:10;3.55;;;1.85;;
11064;SDS011;5585;52.530;7.320;2023-07-13T06:54:39;6.55;;;2.13;;
11064;SDS011;5585;52.530;7.320;2023-07-13T06:57:05;7.57;;;2.90;;
11064;SDS011;5585;52.530;7.320;2023-07-13T06:59:32;5.70;;;2.13;;
11064;SDS011;5585;52.530;7.320;2023-07-13T07:01:59;7.47;;;2.80;;
11064;SDS011;5585;52.530;7.320;2023-07-13T07:04:25;5.03;;;1.83;;
11064;SDS011;5585;52.530;7.320;2023-07-13T07:06:53;2.67;;;1.50;;
11064;SDS011;5585;52.530;7.320;2023-07-13T07:09:20;4.13;;;1.58;;
11064;SDS011;5585;52.530;7.320;2023-07-13T07:11:47;6.75;;;2.20;;
11064;SDS011;5585;52.530;7.320;2023-07-13T07:14:13;6.78;;;2.45;;
11064;SDS011;5585;52.530;7.320;2023-07-13T07:16:43;7.60;;;2.85;;
11064;SDS011;5585;52.530;7.320;2023-07-13T07:19:10;5.55;;;1.80;;
11064;SDS011;5585;52.530;7.320;2023-07-13T07:21:37;5.13;;;2.08;;
11064;SDS011;5585;52.530;7.320;2023-07-13T07:24:05;6.25;;;2.15;;
11064;SDS011;5585;52.530;7.320;2023-07-13T07:26:32;6.25;;;2.58;;
11064;SDS011;5585;52.530;7.320;2023-07-13T07:28:59;7.80;;;2.60;;
11064;SDS011;5585;52.530;7.320;2023-07-13T07:31:25;4.63;;;2.38;;
11064;SDS011;5585;52.530;7.320;2023-07-13T07:33:52;5.57;;;2.30;;
11064;SDS011;5585;52.530;7.320;2023-07-13T07:36:18;4.90;;;2.53;;
11064;SDS011;5585;52.530;7.320;2023-07-13T07:38:45;4.40;;;1.90;;
11064;SDS011;5585;52.530;7.320;2023-07-13T07:41:13;5.57;;;3.20;;
11064;SDS011;5585;52.530;7.320;2023-07-13T07:43:40;13.75;;;3.30;;
11064;SDS011;5585;52.530;7.320;2023-07-13T07:46:06;6.55;;;2.42;;
11064;SDS011;5585;52.530;7.320;2023-07-13T07:48:33;4.10;;;1.90;;
11064;SDS011;5585;52.530;7.320;2023-07-13T07:51:00;6.65;;;2.63;;
11064;SDS011;5585;52.530;7.320;2023-07-13T07:53:26;7.15;;;2.75;;
11064;SDS011;5585;52.530;7.320;2023-07-13T07:55:53;4.80;;;2.17;;
11064;SDS011;5585;52.530;7.320;2023-07-13T07:58:21;7.45;;;2.70;;
11064;SDS011;5585;52.530;7.320;2023-07-13T08:00:50;8.90;;;3.70;;
11064;SDS011;5585;52.530;7.320;2023-07-13T08:03:17;5.68;;;3.03;;
11064;SDS011;5585;52.530;7.320;2023-07-13T08:05:43;7.47;;;3.08;;
11064;SDS011;5585;52.530;7.320;2023-07-13T08:08:10;9.07;;;4.28;;
11064;SDS011;5585;52.530;7.320;2023-07-13T08:10:37;7.25;;;3.60;;
11064;SDS011;5585;52.530;7.320;2023-07-13T08:13:03;5.20;;;2.80;;
11064;SDS011;5585;52.530;7.320;2023-07-13T08:15:32;5.45;;;2.80;;
11064;SDS011;5585;52.530;7.320;2023-07-13T08:17:58;12.50;;;4.65;;
11064;SDS011;5585;52.530;7.320;2023-07-13T08:20:25;8.55;;;3.50;;
11064;SDS011;5585;52.530;7.320;2023-07-13T08:22:52;6.22;;;2.92;;
11064;SDS011;5585;52.530;7.320;2023-07-13T08:25:19;5.90;;;2.70;;
11064;SDS011;5585;52.530;7.320;2023-07-13T08:27:47;8.82;;;4.25;;
11064;SDS011;5585;52.530;7.320;2023-07-13T08:30:13;9.13;;;3.25;;
11064;SDS011;5585;52.530;7.320;2023-07-13T08:32:41;6.80;;;3.10;;
11064;SDS011;5585;52.530;7.320;2023-07-13T08:35:08;5.45;;;2.58;;
11064;SDS011;5585;52.530;7.320;2023-07-13T08:37:35;6.20;;;2.85;;
11064;SDS011;5585;52.530;7.320;2023-07-13T08:40:01;4.22;;;2.42;;
11064;SDS011;5585;52.530;7.320;2023-07-13T08:42:33;6.80;;;3.00;;
11064;SDS011;5585;52.530;7.320;2023-07-13T08:45:05;6.22;;;2.75;;
11064;SDS011;5585;52.530;7.320;2023-07-13T08:47:35;5.00;;;2.30;;
11064;SDS011;5585;52.530;7.320;2023-07-13T08:50:07;5.75;;;2.90;;
11064;SDS011;5585;52.530;7.320;2023-07-13T08:52:36;11.05;;;3.83;;
11064;SDS011;5585;52.530;7.320;2023-07-13T08:55:05;5.85;;;3.50;;
11064;SDS011;5585;52.530;7.320;2023-07-13T08:57:36;11.32;;;3.85;;
11064;SDS011;5585;52.530;7.320;2023-07-13T09:00:02;9.40;;;4.20;;
11064;SDS011;5585;52.530;7.320;2023-07-13T09:02:34;5.57;;;2.97;;
11064;SDS011;5585;52.530;7.320;2023-07-13T09:05:08;5.28;;;3.03;;
11064;SDS011;5585;52.530;7.320;2023-07-13T09:07:40;5.70;;;3.15;;
11064;SDS011;5585;52.530;7.320;2023-07-13T09:10:11;6.18;;;2.65;;
11064;SDS011;5585;52.530;7.320;2023-07-13T09:12:44;6.75;;;3.28;;
11064;SDS011;5585;52.530;7.320;2023-07-13T09:15:17;4.32;;;2.72;;
11064;SDS011;5585;52.530;7.320;2023-07-13T09:17:46;5.38;;;2.80;;
11064;SDS011;5585;52.530;7.320;2023-07-13T09:20:17;4.68;;;2.55;;
11064;SDS011;5585;52.530;7.320;2023-07-13T09:22:46;5.43;;;2.95;;
11064;SDS011;5585;52.530;7.320;2023-07-13T09:25:18;4.97;;;2.67;;
11064;SDS011;5585;52.530;7.320;2023-07-13T09:27:47;6.40;;;2.75;;
11064;SDS011;5585;52.530;7.320;2023-07-13T09:30:20;4.40;;;2.90;;
11064;SDS011;5585;52.530;7.320;2023-07-13T09:32:50;5.10;;;2.65;;
11064;SDS011;5585;52.530;7.320;2023-07-13T09:35:20;4.70;;;2.70;;
11064;SDS011;5585;52.530;7.320;2023-07-13T09:37:47;5.47;;;3.30;;
11064;SDS011;5585;52.530;7.320;2023-07-13T09:40:17;5.90;;;2.90;;
11064;SDS011;5585;52.530;7.320;2023-07-13T09:42:48;5.32;;;2.80;;
11064;SDS011;5585;52.530;7.320;2023-07-13T09:45:17;5.18;;;2.75;;
11064;SDS011;5585;52.530;7.320;2023-07-13T09:47:53;6.10;;;2.95;;
11064;SDS011;5585;52.530;7.320;2023-07-13T09:50:26;5.80;;;2.60;;
11064;SDS011;5585;52.530;7.320;2023-07-13T09:52:54;7.35;;;2.95;;
11064;SDS011;5585;52.530;7.320;2023-07-13T09:55:24;5.80;;;2.97;;
11064;SDS011;5585;52.530;7.320;2023-07-13T09:57:51;4.68;;;2.95;;
11064;SDS011;5585;52.530;7.320;2023-07-13T10:00:23;6.15;;;3.20;;
11064;SDS011;5585;52.530;7.320;2023-07-13T10:02:58;5.70;;;2.95;;
11064;SDS011;5585;52.530;7.320;2023-07-13T10:05:24;10.10;;;4.65;;
11064;SDS011;5585;52.530;7.320;2023-07-13T10:07:53;8.85;;;3.78;;
11064;SDS011;5585;52.530;7.320;2023-07-13T10:10:22;6.35;;;3.95;;
11064;SDS011;5585;52.530;7.320;2023-07-13T10:12:49;9.20;;;3.90;;
11064;SDS011;5585;52.530;7.320;2023-07-13T10:15:17;7.53;;;3.38;;
11064;SDS011;5585;52.530;7.320;2023-07-13T10:17:44;5.80;;;3.50;;
11064;SDS011;5585;52.530;7.320;2023-07-13T10:20:11;7.35;;;3.50;;
11064;SDS011;5585;52.530;7.320;2023-07-13T10:22:40;7.03;;;3.33;;
11064;SDS011;5585;52.530;7.320;2023-07-13T10:25:14;4.90;;;2.90;;
11064;SDS011;5585;52.530;7.320;2023-07-13T10:27:45;7.20;;;4.60;;
11064;SDS011;5585;52.530;7.320;2023-07-13T10:30:13;6.90;;;3.22;;
11064;SDS011;5585;52.530;7.320;2023-07-13T10:32:41;7.05;;;4.80;;
11064;SDS011;5585;52.530;7.320;2023-07-13T10:35:09;6.30;;;4.10;;
11064;SDS011;5585;52.530;7.320;2023-07-13T10:37:39;5.97;;;3.70;;
11064;SDS011;5585;52.530;7.320;2023-07-13T10:40:12;7.57;;;3.83;;
11064;SDS011;5585;52.530;7.320;2023-07-13T10:42:43;4.75;;;2.97;;
11064;SDS011;5585;52.530;7.320;2023-07-13T10:45:12;3.55;;;2.55;;
11064;SDS011;5585;52.530;7.320;2023-07-13T10:47:39;3.38;;;2.33;;
11064;SDS011;5585;52.530;7.320;2023-07-13T10:50:07;2.67;;;2.42;;
11064;SDS011;5585;52.530;7.320;2023-07-13T10:52:40;4.10;;;2.60;;
11064;SDS011;5585;52.530;7.320;2023-07-13T10:55:14;3.80;;;2.50;;
11064;SDS011;5585;52.530;7.320;2023-07-13T10:58:00;4.30;;;2.67;;
11064;SDS011;5585;52.530;7.320;2023-07-13T11:00:30;5.20;;;3.10;;
11064;SDS011;5585;52.530;7.320;2023-07-13T11:02:57;4.70;;;3.10;;
11064;SDS011;5585;52.530;7.320;2023-07-13T11:05:27;6.18;;;2.88;;
11064;SDS011;5585;52.530;7.320;2023-07-13T11:07:55;6.97;;;3.08;;
11064;SDS011;5585;52.530;7.320;2023-07-13T11:13:29;4.03;;;3.05;;
11064;SDS011;5585;52.530;7.320;2023-07-13T11:16:02;3.85;;;3.20;;
11064;SDS011;5585;52.530;7.320;2023-07-13T11:18:38;4.85;;;3.42;;
11064;SDS011;5585;52.530;7.320;2023-07-13T11:21:15;5.15;;;3.75;;
11064;SDS011;5585;52.530;7.320;2023-07-13T11:23:45;6.25;;;3.92;;
11064;SDS011;5585;52.530;7.320;2023-07-13T11:29:08;5.50;;;3.63;;
11064;SDS011;5585;52.530;7.320;2023-07-13T11:31:36;5.70;;;3.80;;
11064;SDS011;5585;52.530;7.320;2023-07-13T11:34:06;4.18;;;3.78;;
11064;SDS011;5585;52.530;7.320;2023-07-13T11:36:38;5.75;;;3.83;;
11064;SDS011;5585;52.530;7.320;2023-07-13T11:39:12;5.22;;;4.38;;
11064;SDS011;5585;52.530;7.320;2023-07-13T11:41:43;6.25;;;4.18;;
11064;SDS011;5585;52.530;7.320;2023-07-13T11:44:13;5.07;;;3.75;;
11064;SDS011;5585;52.530;7.320;2023-07-13T11:46:44;5.50;;;3.97;;
11064;SDS011;5585;52.530;7.320;2023-07-13T11:49:11;3.55;;;2.97;;
11064;SDS011;5585;52.530;7.320;2023-07-13T11:51:40;4.28;;;3.10;;
11064;SDS011;5585;52.530;7.320;2023-07-13T11:54:10;3.65;;;2.83;;
11064;SDS011;5585;52.530;7.320;2023-07-13T11:56:39;4.07;;;2.72;;
11064;SDS011;5585;52.530;7.320;2023-07-13T11:59:06;3.78;;;2.53;;
11064;SDS011;5585;52.530;7.320;2023-07-13T12:01:34;2.78;;;2.15;;
11064;SDS011;5585;52.530;7.320;2023-07-13T12:04:03;2.60;;;2.40;;
11064;SDS011;5585;52.530;7.320;2023-07-13T12:06:32;3.92;;;2.10;;
11064;SDS011;5585;52.530;7.320;2023-07-13T12:09:02;2.47;;;1.83;;
11064;SDS011;5585;52.530;7.320;2023-07-13T12:11:30;2.78;;;1.98;;
11064;SDS011;5585;52.530;7.320;2023-07-13T12:13:57;3.00;;;1.70;;
11064;SDS011;5585;52.530;7.320;2023-07-13T12:16:25;1.90;;;1.30;;
11064;SDS011;5585;52.530;7.320;2023-07-13T12:18:54;1.83;;;0.98;;
11064;SDS011;5585;52.530;7.320;2023-07-13T12:21:23;2.65;;;1.90;;
11064;SDS011;5585;52.530;7.320;2023-07-13T12:23:52;2.05;;;1.60;;
11064;SDS011;5585;52.530;7.320;2023-07-13T12:26:19;1.10;;;1.00;;
11064;SDS011;5585;52.530;7.320;2023-07-13T12:28:46;2.50;;;1.60;;
11064;SDS011;5585;52.530;7.320;2023-07-13T12:31:23;3.50;;;2.05;;
11064;SDS011;5585;52.530;7.320;2023-07-13T12:33:58;1.73;;;1.48;;
11064;SDS011;5585;52.530;7.320;2023-07-13T12:36:32;2.75;;;1.67;;
11064;SDS011;5585;52.530;7.320;2023-07-13T12:39:03;2.00;;;1.63;;
11064;SDS011;5585;52.530;7.320;2023-07-13T12:41:31;1.65;;;1.40;;
11064;SDS011;5585;52.530;7.320;2023-07-13T12:43:59;2.17;;;1.73;;
11064;SDS011;5585;52.530;7.320;2023-07-13T12:46:25;2.90;;;2.50;;
11064;SDS011;5585;52.530;7.320;2023-07-13T12:48:54;3.13;;;2.45;;
11064;SDS011;5585;52.530;7.320;2023-07-13T12:51:22;3.03;;;2.13;;
11064;SDS011;5585;52.530;7.320;2023-07-13T12:53:51;4.28;;;2.92;;
11064;SDS011;5585;52.530;7.320;2023-07-13T12:56:21;4.68;;;3.25;;
11064;SDS011;5585;52.530;7.320;2023-07-13T12:58:49;4.88;;;2.60;;
11064;SDS011;5585;52.530;7.320;2023-07-13T13:01:20;4.07;;;3.20;;
11064;SDS011;5585;52.530;7.320;2023-07-13T13:03:47;3.40;;;2.40;;
11064;SDS011;5585;52.530;7.320;2023-07-13T13:06:25;3.42;;;2.50;;
11064;SDS011;5585;52.530;7.320;2023-07-13T13:08:52;4.13;;;2.60;;
11064;SDS011;5585;52.530;7.320;2023-07-13T13:11:20;4.10;;;3.30;;
11064;SDS011;5585;52.530;7.320;2023-07-13T13:13:48;3.70;;;2.75;;
11064;SDS011;5585;52.530;7.320;2023-07-13T13:16:17;3.50;;;3.20;;
11064;SDS011;5585;52.530;7.320;2023-07-13T13:18:45;6.95;;;4.55;;
11064;SDS011;5585;52.530;7.320;2023-07-13T13:21:12;5.78;;;4.88;;
11064;SDS011;5585;52.530;7.320;2023-07-13T13:23:43;4.40;;;3.88;;
11064;SDS011;5585;52.530;7.320;2023-07-13T13:26:11;7.85;;;5.63;;
11064;SDS011;5585;52.530;7.320;2023-07-13T13:28:38;4.75;;;3.47;;
11064;SDS011;5585;52.530;7.320;2023-07-13T13:31:04;5.80;;;4.13;;
11064;SDS011;5585;52.530;7.320;2023-07-13T13:33:31;4.82;;;4.00;;
11064;SDS011;5585;52.530;7.320;2023-07-13T13:35:58;4.38;;;3.65;;
11064;SDS011;5585;52.530;7.320;2023-07-13T13:38:25;6.28;;;3.80;;
11064;SDS011;5585;52.530;7.320;2023-07-13T13:40:53;3.92;;;3.08;;
11064;SDS011;5585;52.530;7.320;2023-07-13T13:43:24;4.70;;;2.95;;
11064;SDS011;5585;52.530;7.320;2023-07-13T13:45:52;5.05;;;2.47;;
11064;SDS011;5585;52.530;7.320;2023-07-13T13:48:20;2.85;;;1.83;;
11064;SDS011;5585;52.530;7.320;2023-07-13T13:50:52;2.55;;;1.70;;
11064;SDS011;5585;52.530;7.320;2023-07-13T13:53:19;2.55;;;1.67;;
11064;SDS011;5585;52.530;7.320;2023-07-13T13:55:46;2.40;;;1.65;;
11064;SDS011;5585;52.530;7.320;2023-07-13T13:58:14;3.38;;;1.65;;
11064;SDS011;5585;52.530;7.320;2023-07-13T14:00:41;2.78;;;1.35;;
11064;SDS011;5585;52.530;7.320;2023-07-13T14:03:13;2.80;;;1.50;;
11064;SDS011;5585;52.530;7.320;2023-07-13T14:05:40;2.42;;;1.67;;
11064;SDS011;5585;52.530;7.320;2023-07-13T14:08:08;2.05;;;1.55;;
11064;SDS011;5585;52.530;7.320;2023-07-13T14:10:38;3.15;;;1.75;;
11064;SDS011;5585;52.530;7.320;2023-07-13T14:13:05;1.98;;;1.60;;
11064;SDS011;5585;52.530;7.320;2023-07-13T14:15:37;3.05;;;1.92;;
11064;SDS011;5585;52.530;7.320;2023-07-13T14:18:03;1.77;;;1.67;;
11064;SDS011;5585;52.530;7.320;2023-07-13T14:20:30;2.75;;;2.17;;
11064;SDS011;5585;52.530;7.320;2023-07-13T14:22:57;4.00;;;1.80;;
11064;SDS011;5585;52.530;7.320;2023-07-13T14:25:24;2.00;;;1.75;;
11064;SDS011;5585;52.530;7.320;2023-07-13T14:27:51;1.83;;;1.60;;
11064;SDS011;5585;52.530;7.320;2023-07-13T14:30:21;2.40;;;1.85;;
11064;SDS011;5585;52.530;7.320;2023-07-13T14:32:49;2.13;;;1.35;;
11064;SDS011;5585;52.530;7.320;2023-07-13T14:35:17;2.80;;;1.52;;
11064;SDS011;5585;52.530;7.320;2023-07-13T14:37:43;3.67;;;2.00;;
11064;SDS011;5585;52.530;7.320;2023-07-13T14:40:12;3.20;;;1.75;;
11064;SDS011;5585;52.530;7.320;2023-07-13T14:42:39;3.33;;;1.65;;
11064;SDS011;5585;52.530;7.320;2023-07-13T14:45:11;3.22;;;1.80;;
11064;SDS011;5585;52.530;7.320;2023-07-13T14:47:38;2.85;;;1.88;;
11064;SDS011;5585;52.530;7.320;2023-07-13T14:50:07;3.75;;;1.63;;
11064;SDS011;5585;52.530;7.320;2023-07-13T14:52:38;3.13;;;2.10;;
11064;SDS011;5585;52.530;7.320;2023-07-13T14:55:07;2.40;;;1.95;;
11064;SDS011;5585;52.530;7.320;2023-07-13T14:57:34;2.05;;;1.70;;
11064;SDS011;5585;52.530;7.320;2023-07-13T15:00:03;2.30;;;1.75;;
11064;SDS011;5585;52.530;7.320;2023-07-13T15:02:33;2.40;;;1.73;;
11064;SDS011;5585;52.530;7.320;2023-07-13T15:05:00;2.08;;;1.50;;
11064;SDS011;5585;52.530;7.320;2023-07-13T15:07:29;3.50;;;1.90;;
11064;SDS011;5585;52.530;7.320;2023-07-13T15:09:55;2.63;;;1.60;;
11064;SDS011;5585;52.530;7.320;2023-07-13T15:12:22;3.13;;;1.92;;
11064;SDS011;5585;52.530;7.320;2023-07-13T15:14:48;2.47;;;1.92;;